createdAt,value
2023-05-09T00:01:11.801Z,15.62
2023-05-09T00:03:38.942Z,15.51
2023-05-09T00:06:06.897Z,15.64
2023-05-09T00:08:33.640Z,15.66
2023-05-09T00:11:01.695Z,15.64
2023-05-09T00:13:28.596Z,15.68
2023-05-09T00:15:57.344Z,15.63
2023-05-09T00:18:24.044Z,15.62
2023-05-09T00:20:50.938Z,15.59
2023-05-09T00:23:17.892Z,15.55
2023-05-09T00:25:44.267Z,15.54
2023-05-09T00:28:10.841Z,15.67
2023-05-09T00:30:37.372Z,15.65
2023-05-09T00:33:03.956Z,15.68
2023-05-09T00:35:32.289Z,15.68
2023-05-09T00:37:59.515Z,15.59
2023-05-09T00:40:26.072Z,15.50
2023-05-09T00:42:52.728Z,15.39
2023-05-09T00:45:19.303Z,15.37
2023-05-09T00:47:45.847Z,15.52
2023-05-09T00:50:12.407Z,15.42
2023-05-09T00:52:39.110Z,15.54
2023-05-09T00:55:08.293Z,15.55
2023-05-09T00:57:35.116Z,15.48
2023-05-09T01:00:01.894Z,15.62
2023-05-09T01:02:28.818Z,15.58
2023-05-09T01:04:58.594Z,15.47
2023-05-09T01:07:38.311Z,15.49
2023-05-09T01:10:26.551Z,15.41
2023-05-09T01:13:01.998Z,15.49
2023-05-09T01:15:57.738Z,15.47
2023-05-09T01:18:37.108Z,15.41
2023-05-09T01:21:11.280Z,15.55
2023-05-09T01:23:46.869Z,15.38
2023-05-09T01:26:50.130Z,15.43
2023-05-09T01:29:39.615Z,15.40
2023-05-09T01:32:10.749Z,15.40
2023-05-09T01:34:40.311Z,15.44
2023-05-09T01:37:08.283Z,15.33
2023-05-09T01:39:39.561Z,15.32
2023-05-09T01:42:08.549Z,15.41
2023-05-09T01:44:43.627Z,15.36
2023-05-09T01:47:11.771Z,15.33
2023-05-09T01:49:41.112Z,15.34
2023-05-09T01:52:10.052Z,15.37
2023-05-09T01:54:38.478Z,15.39
2023-05-09T01:57:07.796Z,15.31
2023-05-09T01:59:35.208Z,15.29
2023-05-09T02:02:03.770Z,15.13
2023-05-09T02:04:31.144Z,15.21
2023-05-09T02:06:59.043Z,15.26
2023-05-09T02:09:26.013Z,15.16
2023-05-09T02:11:52.481Z,15.12
2023-05-09T02:14:18.996Z,15.19
2023-05-09T02:16:45.735Z,15.22
2023-05-09T02:19:12.239Z,15.26
2023-05-09T02:21:38.984Z,15.22
2023-05-09T02:24:06.048Z,15.29
2023-05-09T02:26:33.329Z,15.27
2023-05-09T02:29:02.284Z,15.04
2023-05-09T02:31:30.804Z,15.10
2023-05-09T02:33:57.918Z,15.15
2023-05-09T02:36:24.619Z,15.14
2023-05-09T02:38:51.437Z,15.09
2023-05-09T02:41:18.080Z,15.07
2023-05-09T02:43:44.937Z,15.12
2023-05-09T02:46:11.531Z,15.06
2023-05-09T02:48:38.079Z,14.98
2023-05-09T02:51:04.546Z,14.95
2023-05-09T02:53:31.180Z,14.89
2023-05-09T02:55:57.748Z,14.83
2023-05-09T02:58:24.195Z,14.96
2023-05-09T03:00:50.991Z,15.02
2023-05-09T03:03:18.015Z,15.11
2023-05-09T03:05:44.766Z,15.01
2023-05-09T03:08:11.229Z,15.02
2023-05-09T03:10:37.665Z,14.97
2023-05-09T03:13:04.251Z,14.97
2023-05-09T03:15:30.806Z,15.00
2023-05-09T03:17:57.377Z,14.95
2023-05-09T03:20:23.815Z,14.93
2023-05-09T03:22:50.285Z,14.89
2023-05-09T03:25:17.033Z,14.84
2023-05-09T03:27:43.705Z,14.73
2023-05-09T03:30:10.661Z,14.80
2023-05-09T03:32:37.257Z,14.82
2023-05-09T03:35:04.090Z,14.80
2023-05-09T03:37:30.623Z,14.86
2023-05-09T03:39:57.116Z,14.76
2023-05-09T03:42:23.664Z,14.67
2023-05-09T03:44:50.158Z,14.82
2023-05-09T03:47:16.593Z,14.77
2023-05-09T03:49:43.055Z,14.71
2023-05-09T03:52:09.543Z,14.70
2023-05-09T03:54:35.966Z,14.67
2023-05-09T03:57:02.422Z,14.70
2023-05-09T03:59:28.939Z,14.74
2023-05-09T04:01:56.065Z,14.62
2023-05-09T04:04:22.585Z,14.71
2023-05-09T04:06:49.284Z,14.78
2023-05-09T04:09:15.914Z,14.67
2023-05-09T04:11:42.444Z,14.75
2023-05-09T04:14:08.967Z,14.73
2023-05-09T04:16:35.569Z,14.66
2023-05-09T04:19:02.704Z,14.53
2023-05-09T04:21:29.189Z,14.60
2023-05-09T04:23:55.786Z,14.58
2023-05-09T04:26:22.861Z,14.63
2023-05-09T04:28:49.336Z,14.55
2023-05-09T04:31:15.964Z,14.72
2023-05-09T04:33:42.460Z,14.60
2023-05-09T04:36:09.159Z,14.54
2023-05-09T04:38:35.552Z,14.70
2023-05-09T04:41:02.063Z,14.58
2023-05-09T04:43:28.563Z,14.63
2023-05-09T04:45:55.103Z,14.75
2023-05-09T04:48:21.577Z,14.68
2023-05-09T04:50:50.825Z,14.72
2023-05-09T04:53:17.271Z,14.67
2023-05-09T04:55:43.950Z,14.63
2023-05-09T04:58:10.377Z,14.66
2023-05-09T05:00:36.841Z,14.73
2023-05-09T05:03:03.418Z,14.73
2023-05-09T05:05:30.294Z,14.93
2023-05-09T05:07:57.102Z,14.83
2023-05-09T05:10:23.532Z,14.70
2023-05-09T05:12:50.123Z,14.78
2023-05-09T05:15:19.396Z,14.92
2023-05-09T05:17:45.893Z,15.17
2023-05-09T05:20:12.456Z,15.09
2023-05-09T05:22:39.012Z,15.08
2023-05-09T05:25:05.948Z,15.11
2023-05-09T05:27:32.465Z,15.14
2023-05-09T05:29:59.002Z,15.00
2023-05-09T05:32:25.605Z,15.17
2023-05-09T05:34:52.440Z,15.18
2023-05-09T05:37:18.942Z,15.17
2023-05-09T05:39:45.496Z,15.05
2023-05-09T05:42:11.951Z,15.21
2023-05-09T05:44:38.430Z,15.25
2023-05-09T05:47:04.929Z,15.29
2023-05-09T05:49:31.443Z,15.35
2023-05-09T05:51:57.861Z,15.29
2023-05-09T05:54:24.404Z,15.48
2023-05-09T05:56:51.005Z,15.59
2023-05-09T05:59:17.457Z,15.41
2023-05-09T06:01:43.962Z,15.53
2023-05-09T06:04:10.594Z,15.39
2023-05-09T06:06:37.249Z,15.36
2023-05-09T06:09:03.700Z,15.25
2023-05-09T06:11:30.113Z,15.39
2023-05-09T06:13:56.646Z,15.18
2023-05-09T06:16:23.180Z,15.37
2023-05-09T06:18:49.882Z,15.49
2023-05-09T06:21:16.394Z,15.76
2023-05-09T06:23:57.170Z,15.74
2023-05-09T06:26:29.841Z,15.88
2023-05-09T06:28:56.411Z,15.95
2023-05-09T06:31:25.413Z,15.88
2023-05-09T06:33:52.367Z,15.98
2023-05-09T06:36:18.840Z,15.90
2023-05-09T06:38:45.257Z,15.96
2023-05-09T06:41:11.706Z,15.81
2023-05-09T06:43:38.174Z,15.75
2023-05-09T06:46:04.630Z,15.90
2023-05-09T06:48:31.129Z,15.84
2023-05-09T06:50:58.301Z,15.76
2023-05-09T06:53:24.820Z,15.75
2023-05-09T06:55:51.303Z,15.76
2023-05-09T06:58:17.822Z,15.66
2023-05-09T07:00:44.253Z,15.93
2023-05-09T07:03:11.676Z,15.75
2023-05-09T07:05:38.340Z,15.88
2023-05-09T07:08:04.932Z,15.79
2023-05-09T07:10:31.702Z,15.93
2023-05-09T07:12:58.530Z,15.77
2023-05-09T07:15:39.921Z,15.83
2023-05-09T07:18:08.232Z,15.77
2023-05-09T07:20:34.757Z,15.89
2023-05-09T07:23:03.931Z,16.00
2023-05-09T07:25:30.765Z,16.13
2023-05-09T07:27:58.330Z,15.98
2023-05-09T07:30:25.256Z,16.12
2023-05-09T07:32:52.370Z,16.23
2023-05-09T07:35:19.642Z,16.20
2023-05-09T07:37:46.434Z,16.32
2023-05-09T07:40:13.472Z,16.23
2023-05-09T07:42:40.206Z,16.06
2023-05-09T07:45:07.281Z,16.16
2023-05-09T07:47:33.740Z,16.15
2023-05-09T07:50:00.377Z,16.08
2023-05-09T07:52:26.793Z,16.01
2023-05-09T07:54:54.619Z,16.08
2023-05-09T07:57:21.103Z,15.88
2023-05-09T07:59:47.584Z,15.89
2023-05-09T08:02:14.034Z,16.02
2023-05-09T08:04:41.589Z,16.00
2023-05-09T08:07:09.213Z,15.95
2023-05-09T08:09:35.913Z,15.83
2023-05-09T08:12:02.446Z,15.77
2023-05-09T08:14:29.002Z,15.88
2023-05-09T08:16:55.628Z,15.79
2023-05-09T08:19:23.634Z,15.74
2023-05-09T08:21:50.188Z,15.78
2023-05-09T08:24:16.679Z,15.83
2023-05-09T08:26:44.130Z,15.60
2023-05-09T08:29:10.698Z,15.75
2023-05-09T08:31:37.156Z,15.76
2023-05-09T08:34:04.463Z,15.60
2023-05-09T08:36:31.295Z,15.63
2023-05-09T08:38:57.828Z,15.71
2023-05-09T08:41:28.106Z,15.66
2023-05-09T08:43:55.454Z,15.46
2023-05-09T08:46:30.957Z,15.49
2023-05-09T08:48:58.596Z,15.72
2023-05-09T08:51:25.591Z,15.62
2023-05-09T08:53:52.306Z,15.71
2023-05-09T08:56:18.983Z,15.78
2023-05-09T08:58:45.492Z,15.69
2023-05-09T09:01:14.368Z,15.69
2023-05-09T09:03:47.513Z,15.59
2023-05-09T09:06:14.436Z,15.62
2023-05-09T09:08:41.980Z,15.46
2023-05-09T09:11:13.198Z,15.44
2023-05-09T09:13:41.780Z,15.62
2023-05-09T09:16:18.113Z,15.48
2023-05-09T09:18:45.857Z,15.57
2023-05-09T09:21:15.761Z,15.65
2023-05-09T09:23:43.642Z,15.70
2023-05-09T09:26:10.302Z,15.55
2023-05-09T09:28:36.842Z,15.33
2023-05-09T09:31:31.563Z,15.42
2023-05-09T09:34:03.940Z,15.78
2023-05-09T09:36:32.485Z,15.73
2023-05-09T09:39:01.188Z,15.85
2023-05-09T09:41:38.599Z,15.37
2023-05-09T09:44:08.447Z,15.44
2023-05-09T09:46:45.009Z,15.45
2023-05-09T09:49:12.864Z,15.57
2023-05-09T09:51:40.212Z,15.57
2023-05-09T09:54:07.983Z,15.56
2023-05-09T09:56:42.001Z,15.70
2023-05-09T09:59:16.583Z,15.56
2023-05-09T10:02:04.926Z,15.63
2023-05-09T10:04:37.516Z,15.54
2023-05-09T10:07:06.509Z,15.55
2023-05-09T10:09:34.569Z,15.68
2023-05-09T10:12:06.460Z,15.30
2023-05-09T10:14:35.460Z,15.19
2023-05-09T10:17:04.098Z,15.04
2023-05-09T10:19:31.936Z,15.24
2023-05-09T10:22:04.317Z,15.08
2023-05-09T10:25:00.477Z,15.05
2023-05-09T10:27:30.510Z,15.07
2023-05-09T10:30:13.424Z,14.84
2023-05-09T10:33:08.810Z,14.98
2023-05-09T10:35:46.366Z,14.95
2023-05-09T10:38:13.831Z,14.61
2023-05-09T10:40:40.897Z,14.74
2023-05-09T10:43:08.283Z,14.76
2023-05-09T10:45:35.235Z,14.71
2023-05-09T10:48:03.982Z,14.93
2023-05-09T10:50:31.260Z,14.80
2023-05-09T10:53:03.931Z,14.87
2023-05-09T10:55:37.780Z,14.79
2023-05-09T10:58:40.717Z,14.83
2023-05-09T11:01:07.308Z,14.74
2023-05-09T11:03:54.964Z,14.67
2023-05-09T11:06:45.206Z,14.61
2023-05-09T11:09:41.434Z,14.65
2023-05-09T11:12:15.857Z,14.39
2023-05-09T11:14:45.055Z,14.56
2023-05-09T11:17:35.697Z,14.56
2023-05-09T11:20:06.734Z,14.71
2023-05-09T11:22:41.420Z,14.65
2023-05-09T11:25:09.772Z,14.66
2023-05-09T11:27:48.681Z,14.70
2023-05-09T11:30:17.521Z,14.91
2023-05-09T11:32:55.152Z,14.65
2023-05-09T11:35:23.620Z,14.84
2023-05-09T11:37:53.008Z,14.88
2023-05-09T11:40:21.731Z,14.89
2023-05-09T11:42:50.353Z,14.80
2023-05-09T11:45:17.530Z,14.87
2023-05-09T11:47:45.472Z,14.84
2023-05-09T11:50:13.759Z,14.99
2023-05-09T11:52:41.512Z,14.93
2023-05-09T11:55:13.007Z,14.95
2023-05-09T11:57:41.633Z,14.67
2023-05-09T12:00:10.474Z,14.77
2023-05-09T12:02:40.148Z,14.71
2023-05-09T12:05:11.816Z,14.75
2023-05-09T12:07:39.636Z,14.80
2023-05-09T12:10:12.757Z,14.82
2023-05-09T12:12:47.800Z,14.71
2023-05-09T12:15:15.137Z,14.60
2023-05-09T12:17:42.993Z,14.72
2023-05-09T12:20:10.229Z,14.75
2023-05-09T12:22:40.199Z,14.93
2023-05-09T12:25:10.223Z,14.89
2023-05-09T12:27:38.505Z,14.76
2023-05-09T12:30:08.640Z,14.88
2023-05-09T12:32:36.762Z,14.91
2023-05-09T12:35:03.695Z,14.90
2023-05-09T12:37:32.702Z,14.88
2023-05-09T12:40:11.384Z,14.86
2023-05-09T12:42:38.789Z,15.04
2023-05-09T12:45:08.627Z,14.95
2023-05-09T12:47:35.237Z,14.76
2023-05-09T12:50:04.351Z,14.86
2023-05-09T12:52:44.190Z,14.87
2023-05-09T12:55:21.062Z,15.03
2023-05-09T12:57:59.458Z,14.99
2023-05-09T13:00:26.290Z,15.04
2023-05-09T13:02:53.018Z,15.05
2023-05-09T13:05:21.569Z,15.06
2023-05-09T13:07:50.467Z,14.90
2023-05-09T13:10:19.509Z,15.08
2023-05-09T13:12:48.393Z,14.99
2023-05-09T13:15:16.430Z,14.90
2023-05-09T13:17:43.148Z,14.96
2023-05-09T13:20:10.639Z,15.08
2023-05-09T13:22:37.221Z,15.07
2023-05-09T13:25:04.264Z,14.84
2023-05-09T13:27:30.997Z,14.88
2023-05-09T13:29:57.508Z,14.77
2023-05-09T13:32:25.069Z,14.91
2023-05-09T13:34:52.239Z,15.06
2023-05-09T13:37:18.799Z,15.01
2023-05-09T13:39:45.507Z,14.90
2023-05-09T13:42:11.967Z,15.00
2023-05-09T13:44:38.506Z,15.10
2023-05-09T13:47:07.615Z,15.09
2023-05-09T13:49:34.765Z,15.08
2023-05-09T13:52:01.593Z,15.30
2023-05-09T13:54:29.772Z,15.20
2023-05-09T13:56:56.251Z,15.17
2023-05-09T13:59:22.687Z,15.12
2023-05-09T14:01:49.210Z,14.88
2023-05-09T14:04:15.824Z,14.86
2023-05-09T14:06:48.090Z,14.84
2023-05-09T14:09:15.671Z,14.91
2023-05-09T14:11:42.744Z,14.84
2023-05-09T14:14:09.188Z,14.83
2023-05-09T14:16:35.774Z,14.86
2023-05-09T14:19:02.399Z,14.67
2023-05-09T14:21:28.956Z,14.89
2023-05-09T14:23:55.851Z,15.02
2023-05-09T14:26:22.361Z,15.01
2023-05-09T14:28:48.792Z,15.13
2023-05-09T14:31:15.268Z,14.98
2023-05-09T14:33:41.718Z,15.05
2023-05-09T14:36:08.251Z,14.97
2023-05-09T14:38:35.647Z,14.92
2023-05-09T14:41:02.726Z,14.83
2023-05-09T14:43:29.509Z,14.85
2023-05-09T14:45:57.141Z,14.87
2023-05-09T14:48:23.561Z,14.91
2023-05-09T14:50:50.254Z,14.81
2023-05-09T14:53:16.846Z,14.84
2023-05-09T14:55:43.324Z,14.86
2023-05-09T14:58:09.806Z,14.59
2023-05-09T15:00:36.272Z,14.52
2023-05-09T15:03:03.227Z,14.52
2023-05-09T15:05:30.076Z,14.48
2023-05-09T15:07:56.519Z,14.45
2023-05-09T15:10:23.163Z,14.54
2023-05-09T15:12:49.675Z,14.45
2023-05-09T15:15:18.865Z,14.50
2023-05-09T15:17:45.476Z,14.62
2023-05-09T15:20:15.201Z,14.46
2023-05-09T15:22:42.217Z,14.63
2023-05-09T15:25:09.282Z,14.65
2023-05-09T15:27:36.270Z,14.64
2023-05-09T15:30:03.661Z,14.61
2023-05-09T15:32:30.093Z,14.61
2023-05-09T15:34:56.620Z,14.63
2023-05-09T15:37:23.216Z,14.71
2023-05-09T15:39:49.694Z,14.58
2023-05-09T15:42:16.417Z,14.58
2023-05-09T15:44:43.086Z,14.59
2023-05-09T15:47:10.361Z,14.70
2023-05-09T15:49:37.032Z,14.54
2023-05-09T15:52:04.665Z,14.65
2023-05-09T15:54:32.242Z,14.80
2023-05-09T15:56:59.379Z,14.82
2023-05-09T15:59:26.463Z,14.92
2023-05-09T16:01:53.684Z,14.89
2023-05-09T16:04:20.528Z,14.80
2023-05-09T16:06:47.390Z,14.83
2023-05-09T16:09:13.874Z,14.67
2023-05-09T16:11:41.554Z,14.68
2023-05-09T16:14:11.497Z,14.86
2023-05-09T16:16:38.760Z,14.78
2023-05-09T16:19:08.749Z,14.51
2023-05-09T16:21:37.721Z,14.65
2023-05-09T16:24:05.028Z,14.61
2023-05-09T16:26:31.817Z,14.61
2023-05-09T16:28:58.353Z,14.58
2023-05-09T16:31:26.577Z,14.54
2023-05-09T16:33:54.563Z,14.59
2023-05-09T16:36:21.368Z,14.52
2023-05-09T16:38:48.174Z,14.56
2023-05-09T16:41:14.955Z,14.54
2023-05-09T16:43:41.541Z,14.65
2023-05-09T16:46:08.160Z,14.52
2023-05-09T16:48:34.638Z,14.37
2023-05-09T16:51:01.159Z,14.54
2023-05-09T16:53:28.089Z,14.54
2023-05-09T16:55:54.854Z,14.52
2023-05-09T16:58:21.552Z,14.55
2023-05-09T17:00:48.400Z,14.60
2023-05-09T17:03:14.947Z,14.57
2023-05-09T17:05:41.382Z,14.46
2023-05-09T17:08:07.875Z,14.54
2023-05-09T17:10:35.813Z,14.66
2023-05-09T17:13:07.691Z,14.62
2023-05-09T17:15:34.773Z,14.61
2023-05-09T17:18:01.631Z,14.61
2023-05-09T17:20:28.885Z,14.61
2023-05-09T17:22:56.367Z,14.67
2023-05-09T17:25:23.277Z,14.62
2023-05-09T17:27:49.764Z,14.66
2023-05-09T17:30:16.623Z,14.76
2023-05-09T17:32:43.434Z,14.73
2023-05-09T17:35:10.712Z,14.68
2023-05-09T17:37:37.158Z,14.69
2023-05-09T17:40:05.249Z,14.74
2023-05-09T17:42:32.207Z,14.70
2023-05-09T17:44:58.656Z,14.53
2023-05-09T17:47:25.218Z,14.52
2023-05-09T17:49:52.113Z,14.48
2023-05-09T17:52:18.604Z,14.53
2023-05-09T17:54:45.467Z,14.52
2023-05-09T17:57:12.038Z,14.55
2023-05-09T17:59:40.614Z,14.55
2023-05-09T18:02:07.896Z,14.41
2023-05-09T18:04:34.705Z,14.39
2023-05-09T18:07:01.559Z,14.50
2023-05-09T18:09:28.596Z,14.55
2023-05-09T18:11:55.277Z,14.54
2023-05-09T18:14:21.803Z,14.51
2023-05-09T18:16:48.342Z,14.40
2023-05-09T18:19:14.740Z,14.29
2023-05-09T18:21:41.496Z,14.24
2023-05-09T18:24:09.296Z,14.34
2023-05-09T18:26:35.912Z,14.30
2023-05-09T18:29:02.399Z,14.32
2023-05-09T18:31:29.504Z,14.35
2023-05-09T18:33:56.319Z,14.35
2023-05-09T18:36:23.387Z,14.27
2023-05-09T18:38:49.786Z,14.40
2023-05-09T18:41:17.268Z,14.38
2023-05-09T18:43:46.754Z,14.37
2023-05-09T18:46:17.762Z,14.36
2023-05-09T18:48:45.202Z,14.30
2023-05-09T18:51:12.082Z,14.27
2023-05-09T18:53:38.532Z,14.23
2023-05-09T18:56:05.279Z,14.27
2023-05-09T18:58:32.416Z,14.23
2023-05-09T19:00:59.030Z,14.28
2023-05-09T19:03:25.618Z,14.26
2023-05-09T19:05:52.049Z,14.30
2023-05-09T19:08:18.500Z,14.19
2023-05-09T19:10:45.561Z,14.19
2023-05-09T19:13:14.717Z,14.26
2023-05-09T19:15:42.589Z,14.27
2023-05-09T19:18:09.167Z,14.20
2023-05-09T19:20:48.820Z,14.13
2023-05-09T19:23:15.534Z,14.14
2023-05-09T19:25:42.037Z,14.21
2023-05-09T19:28:08.431Z,14.20
2023-05-09T19:30:36.011Z,14.17
2023-05-09T19:33:02.502Z,14.15
2023-05-09T19:35:28.942Z,14.17
2023-05-09T19:37:55.645Z,14.17
2023-05-09T19:40:22.123Z,14.25
2023-05-09T19:42:48.602Z,14.21
2023-05-09T19:45:15.181Z,14.13
2023-05-09T19:47:42.640Z,14.23
2023-05-09T19:50:09.766Z,14.21
2023-05-09T19:52:37.166Z,14.14
2023-05-09T19:55:04.361Z,14.17
2023-05-09T19:57:30.833Z,14.16
2023-05-09T19:59:58.423Z,14.20
2023-05-09T20:02:25.095Z,14.15
2023-05-09T20:04:51.858Z,14.19
2023-05-09T20:07:18.748Z,14.21
2023-05-09T20:09:45.265Z,14.21
2023-05-09T20:12:13.030Z,14.20
2023-05-09T20:14:39.564Z,14.12
2023-05-09T20:17:06.517Z,14.11
2023-05-09T20:19:33.191Z,14.14
2023-05-09T20:22:01.113Z,14.18
2023-05-09T20:24:27.896Z,14.14
2023-05-09T20:26:57.353Z,14.14
2023-05-09T20:29:25.470Z,14.06
2023-05-09T20:31:52.265Z,14.06
2023-05-09T20:34:20.792Z,14.14
2023-05-09T20:36:50.726Z,14.11
2023-05-09T20:39:18.013Z,14.02
2023-05-09T20:41:45.522Z,13.96
2023-05-09T20:44:13.304Z,13.94
2023-05-09T20:46:43.356Z,14.00
2023-05-09T20:49:09.849Z,13.97
2023-05-09T20:51:36.463Z,14.00
2023-05-09T20:54:03.906Z,13.85
2023-05-09T20:56:30.472Z,13.88
2023-05-09T20:59:00.927Z,13.90
2023-05-09T21:01:27.610Z,13.86
2023-05-09T21:03:54.265Z,13.87
2023-05-09T21:06:21.013Z,13.72
2023-05-09T21:08:47.447Z,13.76
2023-05-09T21:11:13.925Z,13.74
2023-05-09T21:13:40.461Z,13.78
2023-05-09T21:16:07.112Z,13.77
2023-05-09T21:18:33.560Z,13.78
2023-05-09T21:21:08.052Z,13.67
2023-05-09T21:23:35.048Z,13.77
2023-05-09T21:26:02.448Z,13.59
2023-05-09T21:28:29.318Z,13.72
2023-05-09T21:30:56.337Z,13.73
2023-05-09T21:33:23.060Z,13.71
2023-05-09T21:35:49.520Z,13.69
2023-05-09T21:38:15.980Z,13.79
2023-05-09T21:40:42.445Z,13.77
2023-05-09T21:43:09.033Z,13.76
2023-05-09T21:45:35.487Z,13.74
2023-05-09T21:48:02.099Z,13.65
2023-05-09T21:50:28.673Z,13.71
2023-05-09T21:52:56.297Z,13.70
2023-05-09T21:55:23.000Z,13.70
2023-05-09T21:57:49.396Z,13.76
2023-05-09T22:00:17.038Z,13.71
2023-05-09T22:02:44.013Z,13.63
2023-05-09T22:05:11.529Z,13.62
2023-05-09T22:07:38.179Z,13.68
2023-05-09T22:10:05.054Z,13.55
2023-05-09T22:12:31.677Z,13.56
2023-05-09T22:14:58.076Z,13.63
2023-05-09T22:17:24.701Z,13.71
2023-05-09T22:19:51.194Z,13.64
2023-05-09T22:22:17.719Z,13.59
2023-05-09T22:24:44.228Z,13.61
2023-05-09T22:27:10.680Z,13.54
2023-05-09T22:29:37.112Z,13.55
2023-05-09T22:32:04.227Z,13.58
2023-05-09T22:34:30.989Z,13.60
2023-05-09T22:36:57.477Z,13.65
2023-05-09T22:39:24.075Z,13.61
2023-05-09T22:41:50.601Z,13.52
2023-05-09T22:44:17.028Z,13.60
2023-05-09T22:46:43.481Z,13.54
2023-05-09T22:49:10.008Z,13.58
2023-05-09T22:51:36.494Z,13.55
2023-05-09T22:54:03.034Z,13.58
2023-05-09T22:56:29.496Z,13.54
2023-05-09T22:58:56.007Z,13.51
2023-05-09T23:01:22.471Z,13.58
2023-05-09T23:03:48.902Z,13.41
2023-05-09T23:06:16.477Z,13.48
2023-05-09T23:08:43.307Z,13.48
2023-05-09T23:11:09.774Z,13.54
2023-05-09T23:13:36.176Z,13.48
2023-05-09T23:16:03.532Z,13.42
2023-05-09T23:18:30.065Z,13.40
2023-05-09T23:20:56.498Z,13.40
2023-05-09T23:23:22.914Z,13.37
2023-05-09T23:25:49.361Z,13.44
2023-05-09T23:28:16.169Z,13.41
2023-05-09T23:30:42.655Z,13.48
2023-05-09T23:33:09.122Z,13.56
2023-05-09T23:35:36.006Z,13.41
2023-05-09T23:38:04.453Z,13.34
2023-05-09T23:40:30.952Z,13.40
2023-05-09T23:42:57.441Z,13.41
2023-05-09T23:45:23.957Z,13.44
2023-05-09T23:47:50.545Z,13.42
2023-05-09T23:50:17.509Z,13.40
2023-05-09T23:52:44.393Z,13.44
2023-05-09T23:55:10.830Z,13.46
2023-05-09T23:57:37.364Z,13.46
